Time;durP1;ratioP1;P1;durP2;ratioP2;P2;SDS_P1;SDS_P2;PMS_P1;PMS_P2;Temp;Humidity;BMP_temperature;BMP_pressure;BME280_temperature;BME280_humidity;BME280_pressure;Samples;Min_cycle;Max_cycle;Signal;HPM_P1;HPM_P2
2021/11/30 00:02:15;;;;;;;18.02;11.07;;;;;;;-0.21;100.00;101079.44;5061706;28;20078;-74
2021/11/30 00:04:41;;;;;;;17.25;9.88;;;;;;;-0.25;100.00;101089.94;5078715;28;20044;-74
2021/11/30 00:07:06;;;;;;;17.98;10.15;;;;;;;-0.22;100.00;101084.06;5096338;28;20644;-74
2021/11/30 00:12:08;;;;;;;16.40;10.57;;;;;;;-0.24;100.00;101080.69;5087157;28;20051;-74
2021/11/30 00:14:35;;;;;;;;;;;;;;;-0.28;100.00;101073.97;5079996;28;20451;-74
2021/11/30 00:17:01;;;;;;;18.05;10.02;;;;;;;-0.29;100.00;101064.94;5084013;28;19912;-74
2021/11/30 00:19:27;;;;;;;16.75;10.13;;;;;;;-0.33;100.00;101065.59;5083368;28;20048;-74
2021/11/30 00:21:52;;;;;;;19.05;9.32;;;;;;;-0.34;100.00;101074.81;5111857;28;20047;-74
2021/11/30 00:24:18;;;;;;;17.33;10.32;;;;;;;-0.34;100.00;101064.72;5086078;28;20033;-74
2021/11/30 00:26:43;;;;;;;15.38;9.90;;;;;;;-0.34;100.00;101077.53;5045846;28;20044;-73
2021/11/30 00:29:09;;;;;;;16.20;9.52;;;;;;;-0.33;100.00;101066.41;5076548;28;20059;-74
2021/11/30 00:31:34;;;;;;;15.77;9.80;;;;;;;-0.31;100.00;101075.22;5063600;28;20043;-74
2021/11/30 00:34:00;;;;;;;17.17;9.80;;;;;;;-0.27;100.00;101070.19;5067725;28;20392;-74
2021/11/30 00:36:25;;;;;;;14.95;9.13;;;;;;;-0.26;100.00;101072.69;5052268;28;20040;-73
2021/11/30 00:38:51;;;;;;;13.93;9.02;;;;;;;-0.24;100.00;101070.63;5080611;28;20484;-74
2021/11/30 00:41:16;;;;;;;17.08;9.38;;;;;;;-0.20;100.00;101075.66;5061423;28;20031;-74
2021/11/30 00:43:42;;;;;;;16.20;10.00;;;;;;;-0.14;100.00;101074.81;5071488;28;20469;-74
2021/11/30 00:46:18;;;;;;;15.98;9.65;;;;;;;-0.13;100.00;101074.59;5080188;28;20028;-74
2021/11/30 00:48:43;;;;;;;16.30;9.55;;;;;;;-0.08;100.00;101068.53;5070169;28;20067;-74
2021/11/30 00:51:15;;;;;;;14.55;9.50;;;;;;;-0.06;100.00;101071.88;5063561;28;20036;-74
2021/11/30 00:53:40;;;;;;;14.38;9.40;;;;;;;-0.03;100.00;101068.72;5062668;28;20055;-74
2021/11/30 00:56:06;;;;;;;16.50;10.32;;;;;;;0.02;100.00;101063.47;5062419;28;20032;-74
2021/11/30 00:58:32;;;;;;;19.08;9.88;;;;;;;0.06;100.00;101067.47;5086833;28;20032;-74
2021/11/30 01:00:57;;;;;;;16.80;9.85;;;;;;;0.08;100.00;101062.63;5088223;28;20037;-74
2021/11/30 01:03:23;;;;;;;16.65;9.82;;;;;;;0.16;100.00;101056.94;5078591;28;20048;-74
2021/11/30 01:05:48;;;;;;;16.40;9.63;;;;;;;0.15;100.00;101058.00;5061643;28;20039;-75
2021/11/30 01:08:14;;;;;;;16.23;9.57;;;;;;;0.21;100.00;101059.88;5112102;28;20029;-74
2021/11/30 01:10:39;;;;;;;15.90;9.65;;;;;;;0.25;100.00;101063.00;5069550;28;20017;-74
2021/11/30 01:13:05;;;;;;;14.85;9.73;;;;;;;0.31;100.00;101058.63;5060928;28;20068;-74
2021/11/30 01:15:31;;;;;;;15.02;9.20;;;;;;;0.34;100.00;101061.75;5078591;28;20036;-74
2021/11/30 01:17:56;;;;;;;14.02;8.30;;;;;;;0.37;100.00;101055.03;5077495;28;20099;-74
2021/11/30 01:20:22;;;;;;;14.07;9.20;;;;;;;0.40;100.00;101051.88;5084846;28;20045;-75
2021/11/30 01:22:47;;;;;;;13.75;8.55;;;;;;;0.45;100.00;101052.06;5076765;28;20112;-74
2021/11/30 01:25:13;;;;;;;14.20;8.65;;;;;;;0.49;100.00;101056.03;5086283;28;20039;-74
2021/11/30 01:27:38;;;;;;;16.20;9.30;;;;;;;0.48;100.00;101045.34;5075523;28;20043;-74
2021/11/30 01:30:05;;;;;;;14.45;9.20;;;;;;;0.53;100.00;101048.25;5068151;28;20043;-74
2021/11/30 01:32:31;;;;;;;14.85;8.10;;;;;;;0.55;100.00;101051.59;5043939;28;20135;-74
2021/11/30 01:34:56;;;;;;;12.15;8.20;;;;;;;0.59;100.00;101048.25;5047258;28;20028;-74
2021/11/30 01:37:22;;;;;;;14.15;8.48;;;;;;;0.60;100.00;101043.59;5072345;28;20026;-74
2021/11/30 01:39:47;;;;;;;14.00;8.40;;;;;;;0.61;100.00;101048.88;5073338;28;20028;-75
2021/11/30 01:42:14;;;;;;;14.93;8.98;;;;;;;0.65;100.00;101046.53;5077385;28;20028;-74
2021/11/30 01:45:04;;;;;;;11.27;7.53;;;;;;;0.68;100.00;101039.81;5070263;28;20086;-74
2021/11/30 01:49:59;;;;;;;13.15;9.02;;;;;;;0.73;100.00;101043.56;5079058;28;20028;-74
2021/11/30 01:52:24;;;;;;;11.40;7.78;;;;;;;0.76;100.00;101036.84;5076988;28;20036;-74
2021/11/30 01:54:51;;;;;;;11.90;8.23;;;;;;;0.78;100.00;101043.75;5077130;28;20084;-75
2021/11/30 01:57:17;;;;;;;12.48;8.68;;;;;;;0.81;100.00;101054.25;5097370;28;20385;-74
2021/11/30 01:59:43;;;;;;;13.70;8.32;;;;;;;0.83;100.00;101059.50;5075457;28;20104;-74
2021/11/30 02:02:09;;;;;;;12.57;8.60;;;;;;;0.86;100.00;101056.34;5044277;28;20051;-75
2021/11/30 02:04:35;;;;;;;14.40;8.23;;;;;;;0.88;100.00;101055.06;5060450;28;20111;-75
2021/11/30 02:07:01;;;;;;;13.57;8.25;;;;;;;0.91;100.00;101050.22;5075952;28;20100;-75
2021/11/30 02:09:27;;;;;;;14.07;8.20;;;;;;;0.93;100.00;101048.13;5059014;28;20421;-75
2021/11/30 02:11:53;;;;;;;11.40;7.47;;;;;;;0.94;100.00;101055.25;5077933;28;20029;-75
2021/11/30 02:14:18;;;;;;;13.77;8.50;;;;;;;0.98;100.00;101059.25;5058783;28;20036;-75
2021/11/30 02:16:45;;;;;;;13.20;8.73;;;;;;;1.00;100.00;101065.31;5058682;28;20036;-75
2021/11/30 02:19:11;;;;;;;12.80;8.18;;;;;;;1.01;100.00;101062.38;5075445;28;20052;-75
2021/11/30 02:21:39;;;;;;;13.02;8.88;;;;;;;1.06;100.00;101064.47;5076213;28;20025;-75
2021/11/30 02:24:04;;;;;;;12.35;7.88;;;;;;;1.07;100.00;101060.66;5067055;28;20113;-75
2021/11/30 02:26:31;;;;;;;13.00;8.50;;;;;;;1.10;100.00;101065.69;5077647;28;20040;-74
2021/11/30 02:28:57;;;;;;;15.38;9.57;;;;;;;1.11;100.00;101056.44;5073932;28;20044;-74
2021/11/30 02:31:24;;;;;;;13.75;9.00;;;;;;;1.12;100.00;101058.13;5076063;28;20027;-75
2021/11/30 02:33:50;;;;;;;11.32;7.90;;;;;;;1.16;100.00;101064.81;5077941;28;20028;-74
2021/11/30 02:36:22;;;;;;;18.52;9.30;;;;;;;1.18;100.00;101056.41;5080137;28;20042;-75
2021/11/30 02:38:48;;;;;;;13.25;8.93;;;;;;;1.21;100.00;101056.81;5080567;28;20028;-75
2021/11/30 02:41:13;;;;;;;14.38;9.32;;;;;;;1.25;100.00;101055.28;5075945;28;20043;-75
2021/11/30 02:43:39;;;;;;;13.15;8.00;;;;;;;1.24;100.00;101042.69;5070377;28;20044;-75
2021/11/30 02:46:04;;;;;;;15.77;9.02;;;;;;;1.26;100.00;101037.84;5074474;28;20031;-74
2021/11/30 02:48:30;;;;;;;16.55;9.25;;;;;;;1.30;100.00;101044.53;5077967;28;20472;-75
2021/11/30 02:50:57;;;;;;;12.63;9.07;;;;;;;1.33;100.00;101043.25;5094479;28;20028;-74
2021/11/30 02:53:22;;;;;;;13.85;9.05;;;;;;;1.32;100.00;101041.59;5075209;28;20035;-74
2021/11/30 02:55:48;;;;;;;16.55;9.60;;;;;;;1.36;100.00;101031.03;5078096;28;20037;-75
2021/11/30 02:58:14;;;;;;;15.50;10.48;;;;;;;1.40;100.00;101035.03;5076491;28;20044;-75
2021/11/30 03:00:40;;;;;;;18.52;10.98;;;;;;;1.42;100.00;101036.47;5077100;28;20046;-74
2021/11/30 03:03:06;;;;;;;15.25;9.40;;;;;;;1.42;100.00;101041.09;5058917;28;20081;-75
2021/11/30 03:05:32;;;;;;;14.88;9.48;;;;;;;1.45;100.00;101041.50;5084541;28;20032;-74
2021/11/30 03:07:57;;;;;;;16.92;9.63;;;;;;;1.47;100.00;101036.63;5083870;28;20069;-74
2021/11/30 03:10:23;;;;;;;14.02;9.85;;;;;;;1.49;100.00;101044.63;5079116;28;20028;-74
2021/11/30 03:12:49;;;;;;;16.60;10.60;;;;;;;1.52;100.00;101042.28;5083218;28;20442;-74
2021/11/30 03:15:20;;;;;;;15.07;8.98;;;;;;;1.52;100.00;101036.81;5059452;28;20485;-74
2021/11/30 03:17:45;;;;;;;14.88;9.57;;;;;;;1.56;100.00;101050.88;5064889;28;20140;-75
2021/11/30 03:20:11;;;;;;;14.35;9.88;;;;;;;1.58;100.00;101042.47;5048288;28;20043;-75
2021/11/30 03:22:38;;;;;;;19.63;11.57;;;;;;;1.61;100.00;101044.75;5091068;28;20032;-74
2021/11/30 03:25:05;;;;;;;23.40;9.85;;;;;;;1.64;100.00;101044.31;5040320;28;20099;-74
2021/11/30 03:27:31;;;;;;;13.63;8.50;;;;;;;1.64;100.00;101045.16;5087256;28;20067;-74
2021/11/30 03:29:56;;;;;;;14.68;9.63;;;;;;;1.66;100.00;101040.28;5068460;28;20036;-74
2021/11/30 03:35:00;;;;;;;20.50;9.88;;;;;;;1.71;100.00;101028.69;5064390;28;20115;-74
2021/11/30 03:37:26;;;;;;;11.55;8.65;;;;;;;1.71;100.00;101032.25;5079466;28;20387;-75
2021/11/30 03:39:54;;;;;;;14.73;9.15;;;;;;;1.75;100.00;101035.38;5089206;28;20047;-75
2021/11/30 03:42:20;;;;;;;13.40;8.07;;;;;;;1.76;100.00;101042.56;5074493;28;20043;-75
2021/11/30 03:44:45;;;;;;;18.98;9.60;;;;;;;1.77;100.00;101039.56;5077902;28;20025;-74
2021/11/30 03:47:11;;;;;;;15.35;9.63;;;;;;;1.81;100.00;101042.69;5079104;28;20021;-75
2021/11/30 03:49:36;;;;;;;13.35;8.68;;;;;;;1.83;100.00;101031.53;5066283;28;20031;-74
2021/11/30 03:52:02;;;;;;;12.55;9.18;;;;;;;1.83;100.00;101032.38;5078451;28;20028;-75
2021/11/30 03:54:29;;;;;;;16.70;9.25;;;;;;;1.86;100.00;101034.66;5044546;28;20115;-75
2021/11/30 03:56:55;;;;;;;13.85;8.90;;;;;;;1.89;100.00;101038.84;5068805;28;20029;-74
2021/11/30 03:59:21;;;;;;;13.20;8.57;;;;;;;1.91;100.00;101039.47;5083304;28;20111;-75
2021/11/30 04:01:46;;;;;;;14.27;9.82;;;;;;;1.91;100.00;101032.09;5062953;28;20029;-75
2021/11/30 04:04:19;;;;;;;16.60;9.23;;;;;;;1.94;100.00;101037.13;5044177;28;20044;-75
2021/11/30 04:06:45;;;;;;;;;;;;;;;1.96;100.00;101026.78;5080542;28;20025;-75
2021/11/30 04:09:10;;;;;;;16.67;9.57;;;;;;;1.97;100.00;101035.81;5081014;28;19912;-75
2021/11/30 04:11:36;;;;;;;15.98;9.43;;;;;;;1.98;100.00;101040.25;5080202;28;20055;-75
2021/11/30 04:14:01;;;;;;;15.60;10.95;;;;;;;2.01;100.00;101045.28;5046506;28;20039;-75
2021/11/30 04:16:27;;;;;;;13.68;10.48;;;;;;;2.02;100.00;101044.22;5078089;28;20025;-75
2021/11/30 04:18:52;;;;;;;12.77;9.50;;;;;;;2.03;100.00;101048.63;5086627;28;20040;-75
2021/11/30 04:21:18;;;;;;;13.73;10.35;;;;;;;2.05;100.00;101045.66;5079009;28;20030;-74
2021/11/30 04:23:43;;;;;;;18.27;11.90;;;;;;;2.08;100.00;101050.69;5077522;28;20029;-75
2021/11/30 04:26:08;;;;;;;18.27;11.55;;;;;;;2.11;100.00;101051.09;5076863;28;20090;-74
2021/11/30 04:28:34;;;;;;;17.73;11.43;;;;;;;2.10;100.00;101043.09;5109338;27;20033;-75
2021/11/30 04:31:00;;;;;;;12.98;9.73;;;;;;;2.12;100.00;101051.94;5070701;28;20058;-75
2021/11/30 04:33:26;;;;;;;14.30;10.40;;;;;;;2.13;100.00;101043.47;5079569;28;20032;-75
2021/11/30 04:35:52;;;;;;;21.58;11.38;;;;;;;2.15;100.00;101043.28;5078557;28;20490;-75
2021/11/30 04:38:17;;;;;;;27.77;11.60;;;;;;;2.16;100.00;101047.69;5072679;28;20040;-75
2021/11/30 04:40:42;;;;;;;16.73;10.60;;;;;;;2.15;100.00;101046.00;5079154;28;20500;-74
2021/11/30 04:43:08;;;;;;;16.55;10.80;;;;;;;2.18;100.00;101051.88;5079177;28;20035;-75
2021/11/30 04:48:18;;;;;;;19.73;12.68;;;;;;;2.22;100.00;101053.09;5077212;28;20070;-75
2021/11/30 04:50:47;;;;;;;15.73;9.93;;;;;;;2.23;100.00;101052.03;5079532;28;20036;-75
2021/11/30 04:53:13;;;;;;;15.35;10.38;;;;;;;2.26;100.00;101049.88;5085730;28;20038;-75
2021/11/30 04:55:38;;;;;;;17.73;10.43;;;;;;;2.28;100.00;101048.59;5083306;28;20495;-75
2021/11/30 04:58:04;;;;;;;13.45;9.50;;;;;;;2.31;100.00;101053.63;5065688;28;20476;-75
2021/11/30 05:00:30;;;;;;;14.60;10.55;;;;;;;2.31;100.00;101039.91;5096363;28;20041;-75
2021/11/30 05:02:55;;;;;;;17.42;11.52;;;;;;;2.34;100.00;101049.59;5104096;28;20111;-75
2021/11/30 05:05:21;;;;;;;15.05;10.15;;;;;;;2.33;100.00;101054.25;5085166;28;20050;-75
2021/11/30 05:07:47;;;;;;;17.65;11.07;;;;;;;2.36;100.00;101051.06;5095962;28;20097;-75
2021/11/30 05:10:18;;;;;;;15.98;10.95;;;;;;;2.37;100.00;101054.66;5080200;28;20059;-76
2021/11/30 05:12:44;;;;;;;17.50;11.48;;;;;;;2.38;100.00;101062.63;5060594;28;20394;-76
2021/11/30 05:15:10;;;;;;;15.95;10.70;;;;;;;2.39;100.00;101058.81;5078635;28;20043;-75
2021/11/30 05:17:35;;;;;;;15.05;10.00;;;;;;;2.39;100.00;101058.81;5077901;28;20020;-75
2021/11/30 05:20:01;;;;;;;14.55;10.48;;;;;;;2.42;100.00;101057.53;5077876;28;20040;-75
2021/11/30 05:22:28;;;;;;;18.35;10.60;;;;;;;2.42;100.00;101058.38;5097263;28;20029;-75
2021/11/30 05:24:54;;;;;;;14.95;9.68;;;;;;;2.45;100.00;101051.59;5078031;28;20047;-75
2021/11/30 05:27:19;;;;;;;14.77;9.73;;;;;;;2.46;100.00;101051.38;5076944;28;20044;-75
2021/11/30 05:29:45;;;;;;;15.27;9.95;;;;;;;2.46;100.00;101059.59;5060409;28;20029;-75
2021/11/30 05:32:11;;;;;;;15.05;9.88;;;;;;;2.47;100.00;101049.47;5094203;28;20522;-75
2021/11/30 05:34:36;;;;;;;16.33;9.30;;;;;;;2.52;100.00;101051.53;5084067;28;20040;-75
2021/11/30 05:37:02;;;;;;;14.02;9.68;;;;;;;2.52;100.00;101046.06;5074273;28;20613;-75
2021/11/30 05:39:28;;;;;;;18.60;10.13;;;;;;;2.53;100.00;101047.72;5077091;28;20103;-75
2021/11/30 05:41:53;;;;;;;17.00;9.65;;;;;;;2.55;100.00;101046.44;5058806;28;20088;-75
2021/11/30 05:44:19;;;;;;;12.85;9.10;;;;;;;2.56;100.00;101058.22;5108991;28;20044;-75
2021/11/30 05:46:46;;;;;;;16.15;10.32;;;;;;;2.56;100.00;101053.56;5075895;28;20043;-75
2021/11/30 05:49:12;;;;;;;14.63;10.10;;;;;;;2.59;100.00;101046.78;5059893;28;20440;-75
2021/11/30 05:51:37;;;;;;;15.20;10.60;;;;;;;2.60;100.00;101048.50;5077889;28;20028;-75
2021/11/30 05:54:03;;;;;;;17.30;10.52;;;;;;;2.60;100.00;101052.06;5076733;28;20027;-75
2021/11/30 05:56:28;;;;;;;16.65;10.70;;;;;;;2.61;100.00;101050.16;5073132;28;20055;-75
2021/11/30 05:58:54;;;;;;;19.73;10.63;;;;;;;2.63;100.00;101042.56;5073850;28;20044;-75
2021/11/30 06:01:28;;;;;;;16.00;11.35;;;;;;;2.63;100.00;101043.38;5076284;28;20028;-75
2021/11/30 06:03:59;;;;;;;16.50;11.52;;;;;;;2.64;100.00;101049.69;5107882;28;20063;-75
2021/11/30 06:06:26;;;;;;;15.27;10.48;;;;;;;2.66;100.00;101053.06;5060246;28;20040;-75
2021/11/30 06:08:51;;;;;;;16.63;10.30;;;;;;;2.63;100.00;101050.78;5060518;28;20484;-75
2021/11/30 06:11:17;;;;;;;15.35;9.63;;;;;;;2.68;100.00;101053.69;5076242;28;20450;-75
2021/11/30 06:13:42;;;;;;;19.27;10.77;;;;;;;2.68;100.00;101059.16;5059812;28;20517;-75
2021/11/30 06:16:08;;;;;;;18.27;10.80;;;;;;;2.69;100.00;101058.91;5083342;28;20028;-74
2021/11/30 06:18:33;;;;;;;16.13;10.13;;;;;;;2.71;100.00;101064.19;5075999;28;20029;-75
2021/11/30 06:20:59;;;;;;;15.63;9.90;;;;;;;2.71;100.00;101061.44;5075722;28;20216;-75
2021/11/30 06:23:24;;;;;;;19.33;9.88;;;;;;;2.73;100.00;101058.47;5092035;28;20028;-77
2021/11/30 06:25:50;;;;;;;17.67;10.68;;;;;;;2.74;100.00;101055.50;5076153;28;20028;-77
2021/11/30 06:28:16;;;;;;;17.40;10.45;;;;;;;2.75;100.00;101059.91;5043657;28;20032;-77
2021/11/30 06:30:42;;;;;;;17.27;11.02;;;;;;;2.78;100.00;101061.34;5069188;28;20104;-76
2021/11/30 06:33:08;;;;;;;16.25;9.98;;;;;;;2.77;100.00;101048.72;5075023;28;20028;-76
2021/11/30 06:35:36;;;;;;;15.95;9.65;;;;;;;2.77;100.00;101046.81;5059324;28;20025;-76
2021/11/30 06:38:02;;;;;;;14.55;9.40;;;;;;;2.78;100.00;101048.47;5073087;28;20027;-75
2021/11/30 06:40:28;;;;;;;16.55;10.18;;;;;;;2.79;100.00;101046.59;5076336;28;20029;-75
2021/11/30 06:42:53;;;;;;;17.60;10.02;;;;;;;2.77;100.00;101049.56;5075035;28;20412;-75
2021/11/30 06:45:19;;;;;;;17.30;9.43;;;;;;;2.79;100.00;101047.44;5093124;28;20476;-75
2021/11/30 06:47:44;;;;;;;18.40;11.40;;;;;;;2.79;100.00;101036.44;5073018;28;20062;-75
2021/11/30 06:50:10;;;;;;;16.58;10.82;;;;;;;2.79;100.00;101043.84;5078523;28;20036;-75
2021/11/30 06:52:39;;;;;;;15.82;9.90;;;;;;;2.78;100.00;101034.75;5051149;28;20370;-76
2021/11/30 06:55:06;;;;;;;17.67;10.38;;;;;;;2.80;100.00;101043.59;5104105;27;20037;-75
2021/11/30 06:57:32;;;;;;;16.40;10.88;;;;;;;2.81;100.00;101048.00;5056422;28;20040;-75
2021/11/30 07:00:02;;;;;;;18.02;10.02;;;;;;;2.79;100.00;101046.59;5076529;28;20051;-75
2021/11/30 07:02:27;;;;;;;15.40;9.13;;;;;;;2.82;100.00;101049.72;5088052;28;20040;-75
2021/11/30 07:04:55;;;;;;;14.10;9.75;;;;;;;2.82;100.00;101051.63;5075485;28;20098;-73
2021/11/30 07:15:06;;;;;;;17.60;10.32;;;;;;;2.84;100.00;101072.28;5074793;28;20047;-75
2021/11/30 07:17:32;;;;;;;16.90;10.00;;;;;;;2.85;100.00;101062.97;5083802;28;20028;-75
2021/11/30 07:19:58;;;;;;;15.27;9.32;;;;;;;2.86;100.00;101061.88;5064281;28;20041;-77
2021/11/30 07:22:23;;;;;;;12.82;8.73;;;;;;;2.87;100.00;101062.72;5084144;28;20027;-76
2021/11/30 07:24:49;;;;;;;15.43;9.77;;;;;;;2.90;100.00;101060.38;5075624;28;20554;-76
2021/11/30 07:27:14;;;;;;;12.60;8.40;;;;;;;2.90;100.00;101052.13;5052708;28;20040;-77
2021/11/30 07:29:41;;;;;;;16.05;8.60;;;;;;;2.92;100.00;101051.88;5065188;28;20060;-76
2021/11/30 07:32:07;;;;;;;12.48;7.15;;;;;;;2.93;100.00;101050.84;5076128;28;20037;-76
2021/11/30 07:34:33;;;;;;;10.38;7.00;;;;;;;2.95;100.00;101061.56;5074216;28;20112;-76
2021/11/30 07:36:59;;;;;;;13.38;7.32;;;;;;;2.96;100.00;101064.09;5071687;28;20063;-76
2021/11/30 07:39:24;;;;;;;15.40;7.80;;;;;;;2.98;100.00;101067.47;5071163;28;20709;-76
2021/11/30 07:41:50;;;;;;;13.30;6.88;;;;;;;3.00;100.00;101076.28;5076823;28;20043;-76
2021/11/30 07:44:15;;;;;;;12.48;6.93;;;;;;;3.02;100.00;101085.13;5069400;28;20032;-76
2021/11/30 07:46:41;;;;;;;9.50;6.05;;;;;;;3.06;100.00;101077.25;5076475;28;20040;-76
2021/11/30 07:49:06;;;;;;;10.85;6.38;;;;;;;3.05;100.00;101079.16;5076081;28;20487;-76
2021/11/30 07:51:32;;;;;;;11.20;7.70;;;;;;;3.12;100.00;101076.34;5075538;28;20033;-76
2021/11/30 07:53:58;;;;;;;10.77;6.80;;;;;;;3.13;100.00;101075.28;5074101;28;20503;-76
2021/11/30 07:56:24;;;;;;;19.17;10.70;;;;;;;3.17;100.00;101079.22;5067339;28;20059;-76
2021/11/30 07:58:49;;;;;;;12.52;8.98;;;;;;;3.20;100.00;101070.53;5028810;28;20366;-75
2021/11/30 08:01:16;;;;;;;14.32;9.50;;;;;;;3.25;100.00;101081.66;5078281;28;20488;-76
2021/11/30 08:03:43;;;;;;;13.40;8.30;;;;;;;3.29;100.00;101085.63;5044720;28;20112;-75
2021/11/30 08:06:09;;;;;;;15.15;8.38;;;;;;;3.33;100.00;101081.34;5072823;28;20186;-75
2021/11/30 08:08:34;;;;;;;11.45;8.35;;;;;;;3.35;100.00;101086.59;5074687;28;20032;-76
2021/11/30 08:11:00;;;;;;;11.80;7.82;;;;;;;3.37;100.00;101084.44;5076305;28;20036;-76
2021/11/30 08:13:25;;;;;;;12.52;7.78;;;;;;;3.41;100.00;101084.84;5076852;28;20032;-76
2021/11/30 08:15:51;;;;;;;16.98;8.00;;;;;;;3.44;100.00;101076.97;5069868;28;20044;-75
2021/11/30 08:18:16;;;;;;;15.85;8.02;;;;;;;3.47;100.00;101075.66;5077396;28;20504;-75
2021/11/30 08:20:42;;;;;;;11.93;7.97;;;;;;;3.50;100.00;101077.94;5080869;28;20029;-75
2021/11/30 08:23:08;;;;;;;16.75;8.77;;;;;;;3.53;100.00;101078.31;5074964;28;20039;-75
2021/11/30 08:25:34;;;;;;;15.45;9.25;;;;;;;3.55;100.00;101081.66;5086024;28;20047;-75
2021/11/30 08:27:59;;;;;;;12.90;8.88;;;;;;;3.56;100.00;101082.50;5054741;28;20068;-75
2021/11/30 08:30:25;;;;;;;17.73;8.88;;;;;;;3.58;100.00;101092.19;5064579;28;20039;-75
2021/11/30 08:32:51;;;;;;;13.48;9.48;;;;;;;3.63;100.00;101087.91;5079555;28;20048;-75
2021/11/30 08:35:16;;;;;;;16.08;8.85;;;;;;;3.65;100.00;101096.72;5080767;28;20096;-75
2021/11/30 08:37:42;;;;;;;11.55;8.23;;;;;;;3.67;100.00;101100.09;5060144;28;20029;-75
2021/11/30 08:40:08;;;;;;;13.52;8.63;;;;;;;3.71;100.00;101098.56;5060857;28;20033;-75
2021/11/30 08:42:33;;;;;;;15.13;9.20;;;;;;;3.73;100.00;101108.25;5078057;28;20109;-75
2021/11/30 08:44:59;;;;;;;15.00;8.63;;;;;;;3.74;100.00;101098.94;5078733;28;20040;-75
2021/11/30 08:47:25;;;;;;;11.77;8.45;;;;;;;3.78;100.00;101100.13;5079872;28;20024;-76
2021/11/30 08:49:52;;;;;;;17.63;9.70;;;;;;;3.83;100.00;101102.16;5060183;28;20056;-76
2021/11/30 08:52:18;;;;;;;15.98;8.77;;;;;;;3.83;100.00;101102.16;5074182;28;20029;-76
2021/11/30 08:54:45;;;;;;;16.15;9.35;;;;;;;3.87;100.00;101100.63;5085537;28;20078;-76
2021/11/30 08:57:10;;;;;;;14.23;9.23;;;;;;;3.87;100.00;101106.13;5079962;28;20025;-76
2021/11/30 08:59:38;;;;;;;13.57;8.93;;;;;;;3.89;100.00;101106.72;5078650;28;20056;-75
2021/11/30 09:02:03;;;;;;;15.27;8.77;;;;;;;3.92;100.00;101116.41;5076196;28;20036;-75
2021/11/30 09:04:29;;;;;;;14.18;8.80;;;;;;;3.95;100.00;101107.69;5058148;28;20404;-76
2021/11/30 09:06:54;;;;;;;15.27;8.68;;;;;;;3.96;100.00;101101.13;5068259;28;20511;-75
2021/11/30 09:09:20;;;;;;;14.48;8.77;;;;;;;4.01;100.00;101098.50;5080640;28;20028;-76
2021/11/30 09:11:45;;;;;;;15.32;9.20;;;;;;;4.05;100.00;101105.22;5061642;28;20037;-77
2021/11/30 09:14:11;;;;;;;16.05;9.70;;;;;;;4.12;100.00;101092.19;5071321;28;20037;-77
2021/11/30 09:16:37;;;;;;;14.02;9.63;;;;;;;4.16;100.00;101096.16;5060352;28;20079;-77
2021/11/30 09:19:03;;;;;;;14.75;9.90;;;;;;;4.21;100.00;101093.53;5058917;28;20041;-77
2021/11/30 09:21:29;;;;;;;15.20;10.40;;;;;;;4.31;100.00;101097.59;5053406;28;20056;-77
2021/11/30 09:23:55;;;;;;;18.05;10.88;;;;;;;4.34;100.00;101089.69;5085256;28;20040;-77
2021/11/30 09:26:20;;;;;;;21.15;11.40;;;;;;;4.39;100.00;101108.25;5072126;28;20048;-78
2021/11/30 09:28:46;;;;;;;19.55;12.02;;;;;;;4.46;100.00;101097.97;5064161;28;20024;-77
2021/11/30 09:31:12;;;;;;;18.77;10.48;;;;;;;4.52;100.00;101104.44;5040348;28;20052;-77
2021/11/30 09:33:39;;;;;;;20.23;10.98;;;;;;;4.58;100.00;101104.28;5061637;28;20050;-77
2021/11/30 09:36:06;;;;;;;17.70;11.82;;;;;;;4.66;100.00;101089.34;5065556;28;20474;-77
2021/11/30 09:38:32;;;;;;;17.58;11.60;;;;;;;4.70;100.00;101087.78;5086210;28;20024;-76
2021/11/30 09:40:59;;;;;;;17.08;11.93;;;;;;;4.75;100.00;101093.38;5079339;28;20025;-78
2021/11/30 09:43:25;;;;;;;17.80;11.52;;;;;;;4.82;100.00;101109.75;5076373;28;20469;-76
2021/11/30 09:45:50;;;;;;;21.38;12.68;;;;;;;4.89;100.00;101104.97;5083823;28;20025;-76
2021/11/30 09:48:16;;;;;;;18.23;12.15;;;;;;;4.94;100.00;101096.84;5043495;28;20528;-77
2021/11/30 09:50:43;;;;;;;16.17;12.07;;;;;;;4.98;100.00;101089.75;5069723;28;20046;-76
2021/11/30 09:53:08;;;;;;;21.60;11.93;;;;;;;5.06;100.00;101094.06;5057438;28;20036;-77
2021/11/30 09:55:36;;;;;;;17.92;10.98;;;;;;;5.11;100.00;101085.91;5055838;28;20032;-77
2021/11/30 09:58:01;;;;;;;19.95;11.88;;;;;;;5.17;100.00;101089.59;5076715;28;20425;-77
2021/11/30 10:00:27;;;;;;;19.45;12.27;;;;;;;5.24;100.00;101098.56;5055426;28;20136;-77
2021/11/30 10:02:54;;;;;;;18.63;11.95;;;;;;;5.30;100.00;101101.16;5055767;28;20432;-77
2021/11/30 10:05:20;;;;;;;19.75;12.55;;;;;;;5.39;100.00;101109.88;5059835;28;20035;-77
2021/11/30 10:07:48;;;;;;;19.45;12.38;;;;;;;5.45;100.00;101111.66;5057213;28;20029;-77
2021/11/30 10:10:16;;;;;;;18.15;12.05;;;;;;;5.50;100.00;101108.16;5069897;28;20044;-76
2021/11/30 10:12:42;;;;;;;16.75;11.13;;;;;;;5.52;100.00;101115.09;5071546;28;20373;-77
2021/11/30 10:15:09;;;;;;;20.75;12.10;;;;;;;5.60;100.00;101113.88;5073353;28;20032;-76
2021/11/30 10:17:35;;;;;;;18.80;11.43;;;;;;;5.64;100.00;101111.47;5075940;28;20095;-76
2021/11/30 10:20:10;;;;;;;17.30;11.77;;;;;;;5.71;100.00;101115.75;5075887;28;20433;-77
2021/11/30 10:22:48;;;;;;;18.38;11.63;;;;;;;5.77;100.00;101114.75;5064804;28;20036;-77
2021/11/30 10:25:20;;;;;;;18.25;11.38;;;;;;;5.82;100.00;101112.09;5078734;28;20048;-76
2021/11/30 10:27:58;;;;;;;18.15;10.55;;;;;;;5.85;100.00;101116.28;5073947;28;20451;-77
2021/11/30 10:30:25;;;;;;;19.50;11.63;;;;;;;5.92;100.00;101118.88;5071397;28;20047;-77
2021/11/30 10:32:51;;;;;;;19.02;11.57;;;;;;;5.96;100.00;101120.91;5076054;28;20075;-77
2021/11/30 10:35:18;;;;;;;13.75;10.40;;;;;;;5.98;100.00;101118.72;5084974;28;20037;-77
2021/11/30 10:37:44;;;;;;;17.85;10.43;;;;;;;6.06;100.00;101116.66;5077550;28;20032;-76
2021/11/30 10:40:13;;;;;;;20.77;11.57;;;;;;;6.08;100.00;101108.97;5077794;28;20103;-76
2021/11/30 10:42:51;;;;;;;18.88;12.55;;;;;;;6.13;100.00;101112.66;5056063;28;20488;-77
2021/11/30 10:45:27;;;;;;;13.45;10.13;;;;;;;6.17;100.00;101110.22;5075667;28;20028;-76
2021/11/30 10:47:53;;;;;;;18.02;10.43;;;;;;;6.22;100.00;101107.56;5052769;28;20510;-76
2021/11/30 10:50:24;;;;;;;13.95;9.48;;;;;;;6.26;100.00;101104.03;5039534;28;20055;-77
2021/11/30 10:52:51;;;;;;;18.70;10.73;;;;;;;6.32;100.00;101102.19;5073881;28;20036;-77
2021/11/30 10:55:18;;;;;;;14.77;10.73;;;;;;;6.40;100.00;101101.78;5058754;28;20532;-76
2021/11/30 10:57:45;;;;;;;14.27;9.30;;;;;;;6.44;100.00;101102.97;5068648;28;20086;-77
2021/11/30 11:00:20;;;;;;;13.88;9.65;;;;;;;6.52;100.00;101107.22;5066403;28;20179;-77
2021/11/30 11:03:01;;;;;;;20.77;9.75;;;;;;;6.56;100.00;101097.34;5064762;28;20040;-76
2021/11/30 11:05:32;;;;;;;15.65;9.82;;;;;;;6.66;100.00;101093.91;5077692;28;20027;-77
2021/11/30 11:08:03;;;;;;;17.40;9.65;;;;;;;6.72;100.00;101074.38;5062210;28;20025;-77
2021/11/30 11:10:28;;;;;;;19.98;9.85;;;;;;;6.78;100.00;101077.22;5058528;28;20036;-77
2021/11/30 11:12:54;;;;;;;16.88;9.35;;;;;;;6.84;100.00;101071.50;5076725;28;20033;-78
2021/11/30 11:15:49;;;;;;;14.95;8.90;;;;;;;6.91;100.00;101066.66;5047039;28;20028;-78
2021/11/30 11:18:31;;;;;;;15.35;9.60;;;;;;;6.99;100.00;101067.28;5067050;28;20566;-77
2021/11/30 11:21:13;;;;;;;18.23;9.65;;;;;;;7.07;100.00;101064.06;5076781;28;20085;-78
2021/11/30 11:23:42;;;;;;;16.97;9.57;;;;;;;7.15;100.00;101058.09;5084720;28;20070;-78
2021/11/30 11:26:38;;;;;;;12.55;7.82;;;;;;;7.24;100.00;101050.19;5056292;28;20024;-78
2021/11/30 11:29:15;;;;;;;13.02;7.80;;;;;;;7.32;100.00;101047.78;5075859;28;20072;-77
2021/11/30 11:31:45;;;;;;;13.00;8.25;;;;;;;7.40;100.00;101040.97;5051995;28;20052;-78